sensor_id;sensor_type;location;lat;lon;timestamp;P1;durP1;ratioP1;P2;durP2;ratioP2
19780;SDS011;10050;55.492;13.506;2022-12-07T00:01:11;12.33;;;8.63;;
19780;SDS011;10050;55.492;13.506;2022-12-07T00:03:39;12.53;;;8.70;;
19780;SDS011;10050;55.492;13.506;2022-12-07T00:06:06;11.87;;;8.30;;
19780;SDS011;10050;55.492;13.506;2022-12-07T00:08:33;12.63;;;9.73;;
19780;SDS011;10050;55.492;13.506;2022-12-07T00:11:00;10.73;;;7.77;;
19780;SDS011;10050;55.492;13.506;2022-12-07T00:13:31;12.50;;;8.67;;
19780;SDS011;10050;55.492;13.506;2022-12-07T00:16:01;15.07;;;8.63;;
19780;SDS011;10050;55.492;13.506;2022-12-07T00:18:28;9.50;;;8.17;;
19780;SDS011;10050;55.492;13.506;2022-12-07T00:20:58;12.20;;;8.50;;
19780;SDS011;10050;55.492;13.506;2022-12-07T00:23:28;11.87;;;8.30;;
19780;SDS011;10050;55.492;13.506;2022-12-07T00:25:54;12.70;;;8.53;;
19780;SDS011;10050;55.492;13.506;2022-12-07T00:28:19;11.17;;;8.33;;
19780;SDS011;10050;55.492;13.506;2022-12-07T00:30:45;14.00;;;8.90;;
19780;SDS011;10050;55.492;13.506;2022-12-07T00:33:11;11.43;;;8.27;;
19780;SDS011;10050;55.492;13.506;2022-12-07T00:35:36;13.00;;;8.70;;
19780;SDS011;10050;55.492;13.506;2022-12-07T00:38:02;11.20;;;8.00;;
19780;SDS011;10050;55.492;13.506;2022-12-07T00:40:27;11.37;;;8.80;;
19780;SDS011;10050;55.492;13.506;2022-12-07T00:42:53;8.80;;;7.07;;
19780;SDS011;10050;55.492;13.506;2022-12-07T00:45:19;10.13;;;8.33;;
19780;SDS011;10050;55.492;13.506;2022-12-07T00:47:44;12.57;;;8.60;;
19780;SDS011;10050;55.492;13.506;2022-12-07T00:50:10;11.37;;;7.83;;
19780;SDS011;10050;55.492;13.506;2022-12-07T00:52:35;13.57;;;8.23;;
19780;SDS011;10050;55.492;13.506;2022-12-07T00:55:01;11.23;;;8.40;;
19780;SDS011;10050;55.492;13.506;2022-12-07T00:57:27;10.60;;;7.97;;
19780;SDS011;10050;55.492;13.506;2022-12-07T00:59:54;12.87;;;8.70;;
19780;SDS011;10050;55.492;13.506;2022-12-07T01:02:22;11.43;;;8.20;;
19780;SDS011;10050;55.492;13.506;2022-12-07T01:04:48;11.67;;;8.50;;
19780;SDS011;10050;55.492;13.506;2022-12-07T01:07:14;11.67;;;7.70;;
19780;SDS011;10050;55.492;13.506;2022-12-07T01:09:39;13.87;;;7.57;;
19780;SDS011;10050;55.492;13.506;2022-12-07T01:12:05;9.83;;;7.17;;
19780;SDS011;10050;55.492;13.506;2022-12-07T01:14:31;10.67;;;7.73;;
19780;SDS011;10050;55.492;13.506;2022-12-07T01:16:56;12.90;;;8.57;;
19780;SDS011;10050;55.492;13.506;2022-12-07T01:19:22;10.87;;;7.63;;
19780;SDS011;10050;55.492;13.506;2022-12-07T01:21:47;11.07;;;7.77;;
19780;SDS011;10050;55.492;13.506;2022-12-07T01:24:13;9.00;;;7.00;;
19780;SDS011;10050;55.492;13.506;2022-12-07T01:26:39;12.27;;;8.00;;
19780;SDS011;10050;55.492;13.506;2022-12-07T01:29:04;11.90;;;8.23;;
19780;SDS011;10050;55.492;13.506;2022-12-07T01:31:30;12.27;;;8.40;;
19780;SDS011;10050;55.492;13.506;2022-12-07T01:33:57;10.90;;;8.33;;
19780;SDS011;10050;55.492;13.506;2022-12-07T01:36:28;14.73;;;8.50;;
19780;SDS011;10050;55.492;13.506;2022-12-07T01:38:57;11.30;;;6.73;;
19780;SDS011;10050;55.492;13.506;2022-12-07T01:41:28;9.57;;;7.77;;
19780;SDS011;10050;55.492;13.506;2022-12-07T01:46:54;10.43;;;7.43;;
19780;SDS011;10050;55.492;13.506;2022-12-07T01:49:26;10.30;;;7.07;;
19780;SDS011;10050;55.492;13.506;2022-12-07T01:52:09;13.10;;;7.77;;
19780;SDS011;10050;55.492;13.506;2022-12-07T01:54:42;10.63;;;7.20;;
19780;SDS011;10050;55.492;13.506;2022-12-07T01:57:09;10.73;;;7.83;;
19780;SDS011;10050;55.492;13.506;2022-12-07T01:59:36;12.07;;;7.20;;
19780;SDS011;10050;55.492;13.506;2022-12-07T02:02:04;11.00;;;7.37;;
19780;SDS011;10050;55.492;13.506;2022-12-07T02:04:37;9.73;;;6.47;;
19780;SDS011;10050;55.492;13.506;2022-12-07T02:07:02;11.27;;;8.17;;
19780;SDS011;10050;55.492;13.506;2022-12-07T02:09:29;12.30;;;6.97;;
19780;SDS011;10050;55.492;13.506;2022-12-07T02:11:55;10.87;;;7.27;;
19780;SDS011;10050;55.492;13.506;2022-12-07T02:14:21;12.10;;;7.17;;
19780;SDS011;10050;55.492;13.506;2022-12-07T02:19:50;8.50;;;6.07;;
19780;SDS011;10050;55.492;13.506;2022-12-07T02:25:22;10.37;;;6.67;;
19780;SDS011;10050;55.492;13.506;2022-12-07T02:27:53;12.33;;;7.67;;
19780;SDS011;10050;55.492;13.506;2022-12-07T02:30:29;10.70;;;6.33;;
19780;SDS011;10050;55.492;13.506;2022-12-07T02:35:40;12.10;;;7.00;;
19780;SDS011;10050;55.492;13.506;2022-12-07T02:38:14;9.60;;;7.00;;
19780;SDS011;10050;55.492;13.506;2022-12-07T02:40:50;8.83;;;6.73;;
19780;SDS011;10050;55.492;13.506;2022-12-07T02:43:25;9.53;;;6.97;;
19780;SDS011;10050;55.492;13.506;2022-12-07T02:45:54;10.33;;;7.47;;
19780;SDS011;10050;55.492;13.506;2022-12-07T02:48:24;11.00;;;7.13;;
19780;SDS011;10050;55.492;13.506;2022-12-07T02:50:53;9.60;;;6.90;;
19780;SDS011;10050;55.492;13.506;2022-12-07T03:07:24;10.27;;;7.40;;
19780;SDS011;10050;55.492;13.506;2022-12-07T03:13:11;10.67;;;7.93;;
19780;SDS011;10050;55.492;13.506;2022-12-07T03:15:49;9.77;;;6.70;;
19780;SDS011;10050;55.492;13.506;2022-12-07T03:18:22;11.73;;;7.00;;
19780;SDS011;10050;55.492;13.506;2022-12-07T03:20:51;10.67;;;7.43;;
19780;SDS011;10050;55.492;13.506;2022-12-07T03:23:20;10.20;;;6.57;;
19780;SDS011;10050;55.492;13.506;2022-12-07T03:25:48;8.77;;;6.63;;
19780;SDS011;10050;55.492;13.506;2022-12-07T03:28:19;9.97;;;6.83;;
19780;SDS011;10050;55.492;13.506;2022-12-07T03:30:49;14.17;;;7.50;;
19780;SDS011;10050;55.492;13.506;2022-12-07T03:33:31;10.77;;;6.90;;
19780;SDS011;10050;55.492;13.506;2022-12-07T03:41:53;9.90;;;6.93;;
19780;SDS011;10050;55.492;13.506;2022-12-07T03:44:20;13.20;;;7.20;;
19780;SDS011;10050;55.492;13.506;2022-12-07T03:49:32;8.03;;;6.27;;
19780;SDS011;10050;55.492;13.506;2022-12-07T03:55:15;7.50;;;5.87;;
19780;SDS011;10050;55.492;13.506;2022-12-07T03:57:46;12.77;;;7.67;;
19780;SDS011;10050;55.492;13.506;2022-12-07T04:00:14;10.27;;;7.60;;
19780;SDS011;10050;55.492;13.506;2022-12-07T04:02:40;10.30;;;6.87;;
19780;SDS011;10050;55.492;13.506;2022-12-07T04:05:07;10.03;;;6.93;;
19780;SDS011;10050;55.492;13.506;2022-12-07T04:07:33;9.30;;;6.50;;
19780;SDS011;10050;55.492;13.506;2022-12-07T04:09:59;10.07;;;7.20;;
19780;SDS011;10050;55.492;13.506;2022-12-07T04:12:25;10.77;;;6.93;;
19780;SDS011;10050;55.492;13.506;2022-12-07T04:14:50;10.23;;;7.47;;
19780;SDS011;10050;55.492;13.506;2022-12-07T04:17:16;10.03;;;7.03;;
19780;SDS011;10050;55.492;13.506;2022-12-07T04:19:42;12.60;;;7.47;;
19780;SDS011;10050;55.492;13.506;2022-12-07T04:22:07;9.80;;;7.53;;
19780;SDS011;10050;55.492;13.506;2022-12-07T04:24:33;9.57;;;7.27;;
19780;SDS011;10050;55.492;13.506;2022-12-07T04:26:59;9.47;;;7.33;;
19780;SDS011;10050;55.492;13.506;2022-12-07T04:29:25;10.73;;;7.17;;
19780;SDS011;10050;55.492;13.506;2022-12-07T04:31:51;8.87;;;6.37;;
19780;SDS011;10050;55.492;13.506;2022-12-07T04:34:17;11.10;;;7.50;;
19780;SDS011;10050;55.492;13.506;2022-12-07T04:36:44;9.93;;;7.47;;
19780;SDS011;10050;55.492;13.506;2022-12-07T04:42:05;11.30;;;7.30;;
19780;SDS011;10050;55.492;13.506;2022-12-07T04:44:31;10.77;;;7.40;;
19780;SDS011;10050;55.492;13.506;2022-12-07T04:46:57;9.50;;;7.47;;
19780;SDS011;10050;55.492;13.506;2022-12-07T04:49:23;11.50;;;7.30;;
19780;SDS011;10050;55.492;13.506;2022-12-07T04:51:49;11.47;;;7.03;;
19780;SDS011;10050;55.492;13.506;2022-12-07T04:54:16;11.87;;;7.70;;
19780;SDS011;10050;55.492;13.506;2022-12-07T04:56:41;10.83;;;7.60;;
19780;SDS011;10050;55.492;13.506;2022-12-07T04:59:07;9.97;;;7.13;;
19780;SDS011;10050;55.492;13.506;2022-12-07T05:01:34;11.63;;;7.83;;
19780;SDS011;10050;55.492;13.506;2022-12-07T05:03:59;11.73;;;7.40;;
19780;SDS011;10050;55.492;13.506;2022-12-07T05:06:25;14.07;;;7.53;;
19780;SDS011;10050;55.492;13.506;2022-12-07T05:08:51;9.20;;;6.53;;
19780;SDS011;10050;55.492;13.506;2022-12-07T05:11:17;11.40;;;8.27;;
19780;SDS011;10050;55.492;13.506;2022-12-07T05:14:02;10.70;;;7.47;;
19780;SDS011;10050;55.492;13.506;2022-12-07T05:16:29;12.33;;;7.93;;
19780;SDS011;10050;55.492;13.506;2022-12-07T05:18:55;9.40;;;7.27;;
19780;SDS011;10050;55.492;13.506;2022-12-07T05:21:20;11.83;;;7.83;;
19780;SDS011;10050;55.492;13.506;2022-12-07T05:23:46;9.67;;;7.33;;
19780;SDS011;10050;55.492;13.506;2022-12-07T05:26:12;11.03;;;7.43;;
19780;SDS011;10050;55.492;13.506;2022-12-07T05:28:37;12.37;;;7.93;;
19780;SDS011;10050;55.492;13.506;2022-12-07T05:31:03;11.53;;;7.63;;
19780;SDS011;10050;55.492;13.506;2022-12-07T05:33:29;12.03;;;7.70;;
19780;SDS011;10050;55.492;13.506;2022-12-07T05:35:54;11.13;;;7.50;;
19780;SDS011;10050;55.492;13.506;2022-12-07T05:38:20;10.70;;;7.13;;
19780;SDS011;10050;55.492;13.506;2022-12-07T05:40:46;12.43;;;8.03;;
19780;SDS011;10050;55.492;13.506;2022-12-07T05:43:11;10.37;;;8.07;;
19780;SDS011;10050;55.492;13.506;2022-12-07T05:45:37;10.57;;;7.67;;
19780;SDS011;10050;55.492;13.506;2022-12-07T05:48:03;13.13;;;7.63;;
19780;SDS011;10050;55.492;13.506;2022-12-07T05:50:28;10.97;;;7.43;;
19780;SDS011;10050;55.492;13.506;2022-12-07T05:52:54;9.50;;;6.43;;
19780;SDS011;10050;55.492;13.506;2022-12-07T05:55:20;10.80;;;8.17;;
19780;SDS011;10050;55.492;13.506;2022-12-07T05:57:45;15.77;;;8.90;;
19780;SDS011;10050;55.492;13.506;2022-12-07T06:00:32;14.03;;;9.00;;
19780;SDS011;10050;55.492;13.506;2022-12-07T06:02:57;11.10;;;7.53;;
19780;SDS011;10050;55.492;13.506;2022-12-07T06:05:23;10.97;;;7.40;;
19780;SDS011;10050;55.492;13.506;2022-12-07T06:07:49;13.60;;;7.87;;
19780;SDS011;10050;55.492;13.506;2022-12-07T06:10:14;10.77;;;7.37;;
19780;SDS011;10050;55.492;13.506;2022-12-07T06:12:40;10.67;;;7.53;;
19780;SDS011;10050;55.492;13.506;2022-12-07T06:15:08;9.50;;;7.33;;
19780;SDS011;10050;55.492;13.506;2022-12-07T06:17:35;10.23;;;7.30;;
19780;SDS011;10050;55.492;13.506;2022-12-07T06:20:01;12.17;;;7.37;;
19780;SDS011;10050;55.492;13.506;2022-12-07T06:22:27;12.10;;;7.27;;
19780;SDS011;10050;55.492;13.506;2022-12-07T06:24:52;11.37;;;7.70;;
19780;SDS011;10050;55.492;13.506;2022-12-07T06:27:18;10.37;;;6.73;;
19780;SDS011;10050;55.492;13.506;2022-12-07T06:29:44;9.77;;;6.77;;
19780;SDS011;10050;55.492;13.506;2022-12-07T06:32:09;10.37;;;7.37;;
19780;SDS011;10050;55.492;13.506;2022-12-07T06:34:36;11.63;;;6.90;;
19780;SDS011;10050;55.492;13.506;2022-12-07T06:37:02;12.55;;;8.38;;
19780;SDS011;10050;55.492;13.506;2022-12-07T06:39:27;10.50;;;7.23;;
19780;SDS011;10050;55.492;13.506;2022-12-07T06:41:54;9.50;;;6.83;;
19780;SDS011;10050;55.492;13.506;2022-12-07T06:44:20;10.33;;;7.20;;
19780;SDS011;10050;55.492;13.506;2022-12-07T06:46:47;9.83;;;6.40;;
19780;SDS011;10050;55.492;13.506;2022-12-07T06:49:13;25.87;;;21.10;;
19780;SDS011;10050;55.492;13.506;2022-12-07T06:51:39;21.83;;;17.07;;
19780;SDS011;10050;55.492;13.506;2022-12-07T06:54:07;16.13;;;12.27;;
19780;SDS011;10050;55.492;13.506;2022-12-07T06:56:42;14.50;;;10.73;;
19780;SDS011;10050;55.492;13.506;2022-12-07T06:59:07;20.97;;;15.43;;
19780;SDS011;10050;55.492;13.506;2022-12-07T07:01:34;35.50;;;25.27;;
19780;SDS011;10050;55.492;13.506;2022-12-07T07:04:00;26.57;;;22.00;;
19780;SDS011;10050;55.492;13.506;2022-12-07T07:06:26;30.75;;;22.05;;
19780;SDS011;10050;55.492;13.506;2022-12-07T07:08:52;16.37;;;13.23;;
19780;SDS011;10050;55.492;13.506;2022-12-07T07:11:17;16.23;;;10.90;;
19780;SDS011;10050;55.492;13.506;2022-12-07T07:13:44;16.17;;;10.30;;
19780;SDS011;10050;55.492;13.506;2022-12-07T07:16:10;19.77;;;15.93;;
19780;SDS011;10050;55.492;13.506;2022-12-07T07:18:36;19.97;;;12.00;;
19780;SDS011;10050;55.492;13.506;2022-12-07T07:21:02;13.60;;;9.97;;
19780;SDS011;10050;55.492;13.506;2022-12-07T07:23:28;13.70;;;9.33;;
19780;SDS011;10050;55.492;13.506;2022-12-07T07:25:54;16.73;;;9.20;;
19780;SDS011;10050;55.492;13.506;2022-12-07T07:28:19;12.47;;;9.10;;
19780;SDS011;10050;55.492;13.506;2022-12-07T07:30:45;14.33;;;9.57;;
19780;SDS011;10050;55.492;13.506;2022-12-07T07:33:10;15.03;;;9.97;;
19780;SDS011;10050;55.492;13.506;2022-12-07T07:35:36;13.33;;;9.43;;
19780;SDS011;10050;55.492;13.506;2022-12-07T07:38:02;12.43;;;9.37;;
19780;SDS011;10050;55.492;13.506;2022-12-07T07:40:28;14.10;;;10.00;;
19780;SDS011;10050;55.492;13.506;2022-12-07T07:42:55;15.43;;;11.20;;
19780;SDS011;10050;55.492;13.506;2022-12-07T07:45:21;15.83;;;11.40;;
19780;SDS011;10050;55.492;13.506;2022-12-07T07:47:48;12.40;;;9.00;;
19780;SDS011;10050;55.492;13.506;2022-12-07T07:50:14;14.10;;;9.03;;
19780;SDS011;10050;55.492;13.506;2022-12-07T07:52:41;14.73;;;9.47;;
19780;SDS011;10050;55.492;13.506;2022-12-07T07:55:07;12.80;;;8.53;;
19780;SDS011;10050;55.492;13.506;2022-12-07T07:57:35;12.10;;;8.47;;
19780;SDS011;10050;55.492;13.506;2022-12-07T08:00:12;11.73;;;8.10;;
19780;SDS011;10050;55.492;13.506;2022-12-07T08:02:39;10.90;;;7.83;;
19780;SDS011;10050;55.492;13.506;2022-12-07T08:05:05;10.33;;;7.57;;
19780;SDS011;10050;55.492;13.506;2022-12-07T08:07:32;10.47;;;7.33;;
19780;SDS011;10050;55.492;13.506;2022-12-07T08:09:57;11.97;;;6.80;;
19780;SDS011;10050;55.492;13.506;2022-12-07T08:12:23;8.37;;;7.27;;
19780;SDS011;10050;55.492;13.506;2022-12-07T08:14:49;6.83;;;5.23;;
19780;SDS011;10050;55.492;13.506;2022-12-07T08:17:14;6.20;;;4.80;;
19780;SDS011;10050;55.492;13.506;2022-12-07T08:19:40;7.20;;;5.17;;
19780;SDS011;10050;55.492;13.506;2022-12-07T08:22:05;5.27;;;4.27;;
19780;SDS011;10050;55.492;13.506;2022-12-07T08:24:34;4.47;;;4.10;;
19780;SDS011;10050;55.492;13.506;2022-12-07T08:27:00;7.27;;;4.10;;
19780;SDS011;10050;55.492;13.506;2022-12-07T08:29:26;4.87;;;3.87;;
19780;SDS011;10050;55.492;13.506;2022-12-07T08:31:52;4.03;;;3.70;;
19780;SDS011;10050;55.492;13.506;2022-12-07T08:34:18;4.33;;;3.80;;
19780;SDS011;10050;55.492;13.506;2022-12-07T08:36:43;4.33;;;3.90;;
19780;SDS011;10050;55.492;13.506;2022-12-07T08:39:09;4.90;;;4.20;;
19780;SDS011;10050;55.492;13.506;2022-12-07T08:41:35;4.07;;;3.63;;
19780;SDS011;10050;55.492;13.506;2022-12-07T08:44:00;4.23;;;3.53;;
19780;SDS011;10050;55.492;13.506;2022-12-07T08:46:48;6.10;;;4.97;;
19780;SDS011;10050;55.492;13.506;2022-12-07T08:49:25;6.63;;;4.27;;
19780;SDS011;10050;55.492;13.506;2022-12-07T08:51:56;4.63;;;3.83;;
19780;SDS011;10050;55.492;13.506;2022-12-07T08:54:22;4.27;;;3.83;;
19780;SDS011;10050;55.492;13.506;2022-12-07T08:56:48;4.40;;;4.00;;
19780;SDS011;10050;55.492;13.506;2022-12-07T08:59:17;5.13;;;4.10;;
19780;SDS011;10050;55.492;13.506;2022-12-07T09:01:44;4.80;;;3.67;;
19780;SDS011;10050;55.492;13.506;2022-12-07T09:04:09;4.87;;;3.97;;
19780;SDS011;10050;55.492;13.506;2022-12-07T09:06:36;3.90;;;3.50;;
19780;SDS011;10050;55.492;13.506;2022-12-07T09:09:02;3.83;;;3.43;;
19780;SDS011;10050;55.492;13.506;2022-12-07T09:11:28;3.80;;;3.50;;
19780;SDS011;10050;55.492;13.506;2022-12-07T09:13:54;3.53;;;3.23;;
19780;SDS011;10050;55.492;13.506;2022-12-07T09:16:20;3.70;;;2.73;;
19780;SDS011;10050;55.492;13.506;2022-12-07T09:18:46;3.83;;;3.53;;
19780;SDS011;10050;55.492;13.506;2022-12-07T09:21:11;3.50;;;2.77;;
19780;SDS011;10050;55.492;13.506;2022-12-07T09:23:37;2.80;;;2.60;;
19780;SDS011;10050;55.492;13.506;2022-12-07T09:26:03;2.83;;;2.50;;
19780;SDS011;10050;55.492;13.506;2022-12-07T09:28:32;3.30;;;3.00;;
19780;SDS011;10050;55.492;13.506;2022-12-07T09:30:58;3.30;;;2.70;;
19780;SDS011;10050;55.492;13.506;2022-12-07T09:33:24;3.03;;;2.73;;
19780;SDS011;10050;55.492;13.506;2022-12-07T09:35:51;3.83;;;2.60;;
19780;SDS011;10050;55.492;13.506;2022-12-07T09:38:17;2.90;;;2.57;;
19780;SDS011;10050;55.492;13.506;2022-12-07T09:40:44;3.67;;;2.93;;
19780;SDS011;10050;55.492;13.506;2022-12-07T09:43:18;2.50;;;2.30;;
19780;SDS011;10050;55.492;13.506;2022-12-07T09:45:50;2.87;;;2.67;;
19780;SDS011;10050;55.492;13.506;2022-12-07T09:48:19;3.13;;;2.50;;
19780;SDS011;10050;55.492;13.506;2022-12-07T09:50:47;3.83;;;2.30;;
19780;SDS011;10050;55.492;13.506;2022-12-07T09:53:15;2.67;;;2.47;;
19780;SDS011;10050;55.492;13.506;2022-12-07T09:55:49;2.83;;;2.40;;
19780;SDS011;10050;55.492;13.506;2022-12-07T09:58:19;2.87;;;2.63;;
19780;SDS011;10050;55.492;13.506;2022-12-07T10:00:48;4.57;;;2.63;;
19780;SDS011;10050;55.492;13.506;2022-12-07T10:03:27;3.20;;;2.90;;
19780;SDS011;10050;55.492;13.506;2022-12-07T10:05:54;3.90;;;2.77;;
19780;SDS011;10050;55.492;13.506;2022-12-07T10:08:20;5.17;;;4.00;;
19780;SDS011;10050;55.492;13.506;2022-12-07T10:10:48;4.03;;;3.37;;
19780;SDS011;10050;55.492;13.506;2022-12-07T10:13:22;3.57;;;3.00;;
19780;SDS011;10050;55.492;13.506;2022-12-07T10:16:01;4.37;;;3.20;;
19780;SDS011;10050;55.492;13.506;2022-12-07T10:18:34;3.43;;;2.83;;
19780;SDS011;10050;55.492;13.506;2022-12-07T10:21:13;3.10;;;2.60;;
19780;SDS011;10050;55.492;13.506;2022-12-07T10:32:00;4.93;;;4.40;;
19780;SDS011;10050;55.492;13.506;2022-12-07T10:34:33;7.93;;;5.43;;
19780;SDS011;10050;55.492;13.506;2022-12-07T10:39:47;4.27;;;3.80;;
19780;SDS011;10050;55.492;13.506;2022-12-07T10:44:49;5.37;;;3.97;;
19780;SDS011;10050;55.492;13.506;2022-12-07T10:53:21;4.67;;;4.00;;
19780;SDS011;10050;55.492;13.506;2022-12-07T11:06:57;5.33;;;4.40;;
19780;SDS011;10050;55.492;13.506;2022-12-07T11:18:27;5.27;;;4.23;;
19780;SDS011;10050;55.492;13.506;2022-12-07T11:24:01;7.30;;;4.63;;
19780;SDS011;10050;55.492;13.506;2022-12-07T11:34:36;6.87;;;5.27;;
19780;SDS011;10050;55.492;13.506;2022-12-07T11:37:16;15.43;;;9.40;;
19780;SDS011;10050;55.492;13.506;2022-12-07T11:42:21;12.40;;;7.40;;
19780;SDS011;10050;55.492;13.506;2022-12-07T11:44:53;6.80;;;5.53;;
19780;SDS011;10050;55.492;13.506;2022-12-07T11:47:45;6.93;;;5.70;;
19780;SDS011;10050;55.492;13.506;2022-12-07T11:55:44;5.73;;;4.77;;
19780;SDS011;10050;55.492;13.506;2022-12-07T12:03:42;7.50;;;5.23;;
19780;SDS011;10050;55.492;13.506;2022-12-07T12:06:11;9.60;;;6.87;;
19780;SDS011;10050;55.492;13.506;2022-12-07T12:08:38;9.87;;;6.63;;
19780;SDS011;10050;55.492;13.506;2022-12-07T12:11:31;10.67;;;7.47;;
19780;SDS011;10050;55.492;13.506;2022-12-07T12:19:35;8.00;;;5.73;;
19780;SDS011;10050;55.492;13.506;2022-12-07T12:22:10;14.00;;;6.37;;
19780;SDS011;10050;55.492;13.506;2022-12-07T12:24:42;6.47;;;5.10;;
19780;SDS011;10050;55.492;13.506;2022-12-07T12:27:18;9.87;;;5.20;;
19780;SDS011;10050;55.492;13.506;2022-12-07T12:29:56;9.53;;;5.30;;
19780;SDS011;10050;55.492;13.506;2022-12-07T12:35:21;8.13;;;5.83;;
19780;SDS011;10050;55.492;13.506;2022-12-07T12:38:47;7.33;;;5.13;;
19780;SDS011;10050;55.492;13.506;2022-12-07T12:40:53;7.00;;;4.50;;
19780;SDS011;10050;55.492;13.506;2022-12-07T12:49:30;6.30;;;4.70;;
19780;SDS011;10050;55.492;13.506;2022-12-07T12:51:59;5.10;;;4.10;;
19780;SDS011;10050;55.492;13.506;2022-12-07T12:57:34;6.80;;;5.13;;
19780;SDS011;10050;55.492;13.506;2022-12-07T13:00:15;8.67;;;5.00;;
19780;SDS011;10050;55.492;13.506;2022-12-07T13:02:49;6.93;;;4.63;;
19780;SDS011;10050;55.492;13.506;2022-12-07T13:05:18;6.00;;;4.53;;
19780;SDS011;10050;55.492;13.506;2022-12-07T13:13:00;6.47;;;4.27;;
19780;SDS011;10050;55.492;13.506;2022-12-07T13:15:39;6.83;;;4.47;;
19780;SDS011;10050;55.492;13.506;2022-12-07T13:21:01;5.73;;;4.10;;
19780;SDS011;10050;55.492;13.506;2022-12-07T13:29:15;5.77;;;4.13;;
19780;SDS011;10050;55.492;13.506;2022-12-07T13:31:43;6.50;;;4.07;;
19780;SDS011;10050;55.492;13.506;2022-12-07T13:34:30;4.57;;;3.60;;
19780;SDS011;10050;55.492;13.506;2022-12-07T13:37:01;5.93;;;4.27;;
19780;SDS011;10050;55.492;13.506;2022-12-07T13:39:35;6.03;;;4.40;;
19780;SDS011;10050;55.492;13.506;2022-12-07T13:45:00;4.33;;;3.83;;
19780;SDS011;10050;55.492;13.506;2022-12-07T13:47:48;6.67;;;4.20;;
19780;SDS011;10050;55.492;13.506;2022-12-07T13:50:25;5.53;;;4.40;;
19780;SDS011;10050;55.492;13.506;2022-12-07T13:52:56;7.07;;;3.90;;
19780;SDS011;10050;55.492;13.506;2022-12-07T13:55:23;6.77;;;4.30;;
19780;SDS011;10050;55.492;13.506;2022-12-07T13:57:50;5.07;;;3.83;;
19780;SDS011;10050;55.492;13.506;2022-12-07T14:00:35;8.27;;;5.30;;
19780;SDS011;10050;55.492;13.506;2022-12-07T14:03:02;7.45;;;5.85;;
19780;SDS011;10050;55.492;13.506;2022-12-07T14:05:33;5.80;;;4.30;;
19780;SDS011;10050;55.492;13.506;2022-12-07T14:08:01;8.53;;;4.47;;
19780;SDS011;10050;55.492;13.506;2022-12-07T14:15:57;6.37;;;4.00;;
19780;SDS011;10050;55.492;13.506;2022-12-07T14:21:02;5.53;;;4.30;;
19780;SDS011;10050;55.492;13.506;2022-12-07T14:23:29;5.33;;;3.80;;
19780;SDS011;10050;55.492;13.506;2022-12-07T14:26:03;7.63;;;4.77;;
19780;SDS011;10050;55.492;13.506;2022-12-07T14:28:36;7.87;;;4.80;;
19780;SDS011;10050;55.492;13.506;2022-12-07T14:31:02;6.87;;;4.77;;
19780;SDS011;10050;55.492;13.506;2022-12-07T14:33:33;4.77;;;4.10;;
19780;SDS011;10050;55.492;13.506;2022-12-07T14:35:58;7.63;;;4.67;;
19780;SDS011;10050;55.492;13.506;2022-12-07T14:38:24;7.33;;;5.40;;
19780;SDS011;10050;55.492;13.506;2022-12-07T14:40:53;7.87;;;5.43;;
19780;SDS011;10050;55.492;13.506;2022-12-07T14:43:40;10.23;;;6.07;;
19780;SDS011;10050;55.492;13.506;2022-12-07T14:46:06;15.80;;;8.47;;
19780;SDS011;10050;55.492;13.506;2022-12-07T14:48:32;10.60;;;6.20;;
19780;SDS011;10050;55.492;13.506;2022-12-07T14:50:57;8.43;;;5.63;;
19780;SDS011;10050;55.492;13.506;2022-12-07T14:53:25;7.20;;;4.73;;
19780;SDS011;10050;55.492;13.506;2022-12-07T14:55:56;6.27;;;4.73;;
19780;SDS011;10050;55.492;13.506;2022-12-07T14:58:22;9.53;;;4.80;;
19780;SDS011;10050;55.492;13.506;2022-12-07T15:00:48;5.50;;;4.37;;
19780;SDS011;10050;55.492;13.506;2022-12-07T15:03:13;5.97;;;4.60;;
19780;SDS011;10050;55.492;13.506;2022-12-07T15:05:39;5.53;;;4.53;;
19780;SDS011;10050;55.492;13.506;2022-12-07T15:08:06;6.87;;;4.93;;
19780;SDS011;10050;55.492;13.506;2022-12-07T15:10:37;8.13;;;6.33;;
19780;SDS011;10050;55.492;13.506;2022-12-07T15:13:04;8.07;;;6.10;;
19780;SDS011;10050;55.492;13.506;2022-12-07T15:15:48;11.73;;;7.10;;
19780;SDS011;10050;55.492;13.506;2022-12-07T15:18:16;7.13;;;5.47;;
19780;SDS011;10050;55.492;13.506;2022-12-07T15:20:43;11.83;;;5.37;;
19780;SDS011;10050;55.492;13.506;2022-12-07T15:23:09;9.83;;;5.47;;
19780;SDS011;10050;55.492;13.506;2022-12-07T15:25:41;11.67;;;5.73;;
19780;SDS011;10050;55.492;13.506;2022-12-07T15:28:07;7.78;;;5.78;;
19780;SDS011;10050;55.492;13.506;2022-12-07T15:30:33;7.38;;;5.32;;
19780;SDS011;10050;55.492;13.506;2022-12-07T15:32:58;7.43;;;4.97;;
19780;SDS011;10050;55.492;13.506;2022-12-07T15:35:24;7.03;;;4.93;;
19780;SDS011;10050;55.492;13.506;2022-12-07T15:37:50;8.13;;;5.47;;
19780;SDS011;10050;55.492;13.506;2022-12-07T15:40:15;10.93;;;5.97;;
19780;SDS011;10050;55.492;13.506;2022-12-07T15:42:41;7.50;;;5.10;;
19780;SDS011;10050;55.492;13.506;2022-12-07T15:45:07;5.93;;;4.50;;
19780;SDS011;10050;55.492;13.506;2022-12-07T15:47:37;7.40;;;4.00;;
19780;SDS011;10050;55.492;13.506;2022-12-07T15:50:07;7.17;;;4.80;;
19780;SDS011;10050;55.492;13.506;2022-12-07T15:52:36;12.87;;;7.10;;
19780;SDS011;10050;55.492;13.506;2022-12-07T15:55:02;8.93;;;5.63;;
19780;SDS011;10050;55.492;13.506;2022-12-07T15:57:32;8.63;;;6.07;;
19780;SDS011;10050;55.492;13.506;2022-12-07T15:59:58;10.03;;;6.00;;
19780;SDS011;10050;55.492;13.506;2022-12-07T16:02:24;13.33;;;6.10;;
19780;SDS011;10050;55.492;13.506;2022-12-07T16:04:50;10.40;;;5.57;;
19780;SDS011;10050;55.492;13.506;2022-12-07T16:07:16;20.17;;;7.13;;
19780;SDS011;10050;55.492;13.506;2022-12-07T16:09:43;19.27;;;6.40;;
19780;SDS011;10050;55.492;13.506;2022-12-07T16:12:10;6.83;;;5.13;;
19780;SDS011;10050;55.492;13.506;2022-12-07T16:14:37;8.50;;;4.57;;
19780;SDS011;10050;55.492;13.506;2022-12-07T16:17:03;12.37;;;6.53;;
19780;SDS011;10050;55.492;13.506;2022-12-07T16:19:30;9.13;;;5.87;;
19780;SDS011;10050;55.492;13.506;2022-12-07T16:21:56;6.43;;;4.80;;
19780;SDS011;10050;55.492;13.506;2022-12-07T16:24:23;6.87;;;4.30;;
19780;SDS011;10050;55.492;13.506;2022-12-07T16:26:48;5.10;;;4.30;;
19780;SDS011;10050;55.492;13.506;2022-12-07T16:29:14;7.47;;;4.13;;
19780;SDS011;10050;55.492;13.506;2022-12-07T16:31:40;6.50;;;4.10;;
19780;SDS011;10050;55.492;13.506;2022-12-07T16:34:08;8.57;;;4.40;;
19780;SDS011;10050;55.492;13.506;2022-12-07T16:36:34;8.43;;;4.50;;
19780;SDS011;10050;55.492;13.506;2022-12-07T16:38:59;10.50;;;6.00;;
19780;SDS011;10050;55.492;13.506;2022-12-07T16:41:26;13.83;;;4.87;;
19780;SDS011;10050;55.492;13.506;2022-12-07T16:43:52;11.83;;;5.43;;
19780;SDS011;10050;55.492;13.506;2022-12-07T16:46:18;9.33;;;5.60;;
19780;SDS011;10050;55.492;13.506;2022-12-07T16:48:44;9.93;;;5.40;;
19780;SDS011;10050;55.492;13.506;2022-12-07T16:51:10;11.90;;;5.13;;
19780;SDS011;10050;55.492;13.506;2022-12-07T16:53:43;9.63;;;4.57;;
19780;SDS011;10050;55.492;13.506;2022-12-07T16:56:13;5.27;;;3.77;;
19780;SDS011;10050;55.492;13.506;2022-12-07T16:58:41;4.50;;;3.03;;
19780;SDS011;10050;55.492;13.506;2022-12-07T17:01:11;4.00;;;3.03;;
19780;SDS011;10050;55.492;13.506;2022-12-07T17:03:39;5.77;;;3.40;;
19780;SDS011;10050;55.492;13.506;2022-12-07T17:06:14;5.57;;;3.87;;